JANET44 KLAS-KXTA
Flight info
| Callsign | JANET44 |
|---|---|
| Flight time | 0h 36m |
| Altitude | 17000 |
| Route | LOHLA3 JAYSN SESAE SAFTY |
| Aircraft | B736/M-SDE2E3FGHIRWXY/LB1 |
Departure
| Time | 2026-05-06 23:25 |
|---|---|
| Airport | Harry Reid International Airport (KLAS) |
Arrival
| Time | 2026-05-07 00:02 |
|---|---|
| Airport | Homey (Area 51) Airport (KXTA) |
| Time | Latitude | Longitude | Altitude | Speed | Heading |
|---|---|---|---|---|---|
| 2026-05-06 23:12 | 36.09173 | -115.16529 | 2146 ft | 0 kts | 76° |
| 2026-05-06 23:15 | 36.09174 | -115.16530 | 2146 ft | 0 kts | 76° |
| 2026-05-06 23:19 | 36.09175 | -115.16522 | 2145 ft | 0 kts | 77° |
| 2026-05-06 23:19 | 36.09172 | -115.16502 | 2144 ft | 5 kts | 123° |
| 2026-05-06 23:20 | 36.09137 | -115.16469 | 2142 ft | 7 kts | 128° |
| 2026-05-06 23:20 | 36.09132 | -115.16450 | 2140 ft | 0 kts | 105° |
| 2026-05-06 23:21 | 36.09131 | -115.16448 | 2140 ft | 2 kts | 105° |
| 2026-05-06 23:21 | 36.09125 | -115.16399 | 2137 ft | 10 kts | 88° |
| 2026-05-06 23:21 | 36.09181 | -115.16335 | 2132 ft | 13 kts | 25° |
| 2026-05-06 23:21 | 36.09277 | -115.16278 | 2128 ft | 17 kts | 25° |
| 2026-05-06 23:22 | 36.09399 | -115.16208 | 2124 ft | 21 kts | 25° |
| 2026-05-06 23:22 | 36.09532 | -115.16134 | 2120 ft | 21 kts | 25° |
| 2026-05-06 23:22 | 36.09660 | -115.16060 | 2116 ft | 20 kts | 25° |
| 2026-05-06 23:22 | 36.09784 | -115.15987 | 2113 ft | 19 kts | 25° |
| 2026-05-06 23:23 | 36.09905 | -115.15918 | 2109 ft | 19 kts | 25° |
| 2026-05-06 23:23 | 36.09977 | -115.15806 | 2106 ft | 15 kts | 75° |
| 2026-05-06 23:23 | 36.09983 | -115.15761 | 2103 ft | 0 kts | 89° |
| 2026-05-06 23:24 | 36.09983 | -115.15754 | 2102 ft | 6 kts | 94° |
| 2026-05-06 23:24 | 36.09929 | -115.15673 | 2100 ft | 16 kts | 174° |
| 2026-05-06 23:24 | 36.09814 | -115.15731 | 2100 ft | 37 kts | 206° |
| 2026-05-06 23:25 | 36.09274 | -115.16042 | 2111 ft | 130 kts | 206° |
| 2026-05-06 23:25 | 36.08245 | -115.16645 | 2329 ft | 190 kts | 205° |
| 2026-05-06 23:25 | 36.07021 | -115.17382 | 3364 ft | 209 kts | 205° |
| 2026-05-06 23:25 | 36.05599 | -115.18282 | 3760 ft | 245 kts | 212° |
| 2026-05-06 23:26 | 36.04395 | -115.19765 | 4191 ft | 250 kts | 238° |
| 2026-05-06 23:26 | 36.03884 | -115.21807 | 4662 ft | 254 kts | 270° |
| 2026-05-06 23:26 | 36.04300 | -115.23900 | 5139 ft | 252 kts | 300° |
| 2026-05-06 23:26 | 36.05376 | -115.25551 | 5941 ft | 243 kts | 315° |
| 2026-05-06 23:27 | 36.06585 | -115.27016 | 6919 ft | 244 kts | 317° |
| 2026-05-06 23:27 | 36.07966 | -115.28216 | 7865 ft | 244 kts | 339° |
| 2026-05-06 23:27 | 36.09599 | -115.28793 | 8885 ft | 244 kts | 348° |
| 2026-05-06 23:27 | 36.11172 | -115.29208 | 9904 ft | 238 kts | 349° |
| 2026-05-06 23:28 | 36.12795 | -115.29633 | 11117 ft | 226 kts | 349° |
| 2026-05-06 23:28 | 36.14282 | -115.30032 | 12299 ft | 213 kts | 349° |
| 2026-05-06 23:28 | 36.15724 | -115.30425 | 13485 ft | 213 kts | 350° |
| 2026-05-06 23:28 | 36.17153 | -115.30924 | 14541 ft | 215 kts | 334° |
| 2026-05-06 23:29 | 36.18219 | -115.32194 | 15563 ft | 220 kts | 311° |
| 2026-05-06 23:29 | 36.19013 | -115.33977 | 15909 ft | 249 kts | 298° |
| 2026-05-06 23:29 | 36.19710 | -115.36068 | 16010 ft | 280 kts | 296° |
| 2026-05-06 23:29 | 36.20467 | -115.38442 | 16043 ft | 311 kts | 296° |
| 2026-05-06 23:30 | 36.21282 | -115.40987 | 16040 ft | 318 kts | 296° |
| 2026-05-06 23:30 | 36.22086 | -115.43467 | 16017 ft | 320 kts | 296° |
| 2026-05-06 23:30 | 36.22914 | -115.45976 | 16021 ft | 320 kts | 296° |
| 2026-05-06 23:30 | 36.23780 | -115.48574 | 16015 ft | 321 kts | 296° |
| 2026-05-06 23:31 | 36.24627 | -115.51105 | 16012 ft | 321 kts | 296° |
| 2026-05-06 23:31 | 36.25487 | -115.53668 | 16019 ft | 321 kts | 296° |
| 2026-05-06 23:31 | 36.26515 | -115.56086 | 16030 ft | 315 kts | 309° |
| 2026-05-06 23:31 | 36.27824 | -115.58252 | 16001 ft | 314 kts | 311° |
| 2026-05-06 23:32 | 36.29187 | -115.60384 | 16013 ft | 313 kts | 312° |
| 2026-05-06 23:32 | 36.30530 | -115.62477 | 16012 ft | 314 kts | 312° |
| 2026-05-06 23:32 | 36.31911 | -115.64652 | 16031 ft | 331 kts | 312° |
| 2026-05-06 23:32 | 36.33400 | -115.67019 | 16020 ft | 362 kts | 311° |
| 2026-05-06 23:33 | 36.34965 | -115.69516 | 16006 ft | 374 kts | 311° |
| 2026-05-06 23:33 | 36.36568 | -115.72085 | 16002 ft | 377 kts | 311° |
| 2026-05-06 23:33 | 36.38170 | -115.74679 | 16003 ft | 377 kts | 310° |
| 2026-05-06 23:33 | 36.39758 | -115.77268 | 15990 ft | 376 kts | 310° |
| 2026-05-06 23:34 | 36.41344 | -115.79850 | 15965 ft | 376 kts | 310° |
| 2026-05-06 23:34 | 36.42914 | -115.82404 | 15977 ft | 374 kts | 310° |
| 2026-05-06 23:34 | 36.44495 | -115.84990 | 15978 ft | 374 kts | 310° |
| 2026-05-06 23:34 | 36.46079 | -115.87579 | 15974 ft | 375 kts | 310° |
| 2026-05-06 23:35 | 36.47642 | -115.90126 | 15952 ft | 375 kts | 310° |
| 2026-05-06 23:35 | 36.49226 | -115.92708 | 15956 ft | 375 kts | 310° |
| 2026-05-06 23:35 | 36.50806 | -115.95284 | 15947 ft | 375 kts | 311° |
| 2026-05-06 23:35 | 36.52317 | -115.97753 | 15944 ft | 377 kts | 310° |
| 2026-05-06 23:36 | 36.54130 | -116.00166 | 15925 ft | 371 kts | 328° |
| 2026-05-06 23:36 | 36.56407 | -116.01522 | 15968 ft | 364 kts | 347° |
| 2026-05-06 23:36 | 36.58914 | -116.01860 | 15969 ft | 361 kts | 4° |
| 2026-05-06 23:36 | 36.61376 | -116.01312 | 15943 ft | 360 kts | 19° |
| 2026-05-06 23:37 | 36.63614 | -116.00020 | 15966 ft | 360 kts | 27° |
| 2026-05-06 23:37 | 36.65828 | -115.98531 | 15960 ft | 361 kts | 28° |
| 2026-05-06 23:37 | 36.68031 | -115.97003 | 15958 ft | 361 kts | 28° |
| 2026-05-06 23:37 | 36.70237 | -115.95474 | 15962 ft | 362 kts | 28° |
| 2026-05-06 23:38 | 36.72422 | -115.93974 | 15965 ft | 362 kts | 28° |
| 2026-05-06 23:38 | 36.74638 | -115.92466 | 15961 ft | 362 kts | 28° |
| 2026-05-06 23:38 | 36.76855 | -115.90966 | 15958 ft | 362 kts | 28° |
| 2026-05-06 23:38 | 36.79057 | -115.89481 | 15958 ft | 361 kts | 28° |
| 2026-05-06 23:39 | 36.81269 | -115.87990 | 15944 ft | 361 kts | 28° |
| 2026-05-06 23:39 | 36.83480 | -115.86500 | 15943 ft | 360 kts | 28° |
| 2026-05-06 23:39 | 36.85697 | -115.85006 | 15941 ft | 360 kts | 28° |
| 2026-05-06 23:39 | 36.87894 | -115.83523 | 15927 ft | 360 kts | 28° |
| 2026-05-06 23:40 | 36.90080 | -115.82047 | 15932 ft | 359 kts | 28° |
| 2026-05-06 23:40 | 36.92293 | -115.80554 | 15938 ft | 360 kts | 28° |
| 2026-05-06 23:40 | 36.94589 | -115.79282 | 15918 ft | 361 kts | 15° |
| 2026-05-06 23:40 | 36.97046 | -115.78846 | 15941 ft | 362 kts | 2° |
| 2026-05-06 23:41 | 36.99587 | -115.79181 | 15927 ft | 365 kts | 348° |
| 2026-05-06 23:41 | 37.02015 | -115.79983 | 15945 ft | 366 kts | 346° |
| 2026-05-06 23:41 | 37.04474 | -115.80838 | 15937 ft | 367 kts | 346° |
| 2026-05-06 23:41 | 37.06935 | -115.81696 | 15934 ft | 367 kts | 346° |
| 2026-05-06 23:42 | 37.09405 | -115.82549 | 15947 ft | 367 kts | 347° |
| 2026-05-06 23:42 | 37.11867 | -115.83390 | 15948 ft | 367 kts | 347° |
| 2026-05-06 23:42 | 37.14330 | -115.84224 | 15958 ft | 366 kts | 347° |
| 2026-05-06 23:42 | 37.16798 | -115.85056 | 15949 ft | 366 kts | 347° |
| 2026-05-06 23:43 | 37.19253 | -115.85879 | 15964 ft | 366 kts | 347° |
| 2026-05-06 23:43 | 37.20885 | -115.86427 | 15956 ft | 366 kts | 347° |
| 2026-05-06 23:43 | 37.23342 | -115.87254 | 15902 ft | 367 kts | 347° |
| 2026-05-06 23:43 | 37.26619 | -115.88357 | 15395 ft | 367 kts | 347° |
| 2026-05-06 23:44 | 37.28276 | -115.88915 | 15157 ft | 364 kts | 347° |
| 2026-05-06 23:44 | 37.30712 | -115.89737 | 14794 ft | 360 kts | 347° |
| 2026-05-06 23:44 | 37.33120 | -115.90548 | 14440 ft | 357 kts | 347° |
| 2026-05-06 23:44 | 37.35441 | -115.91331 | 14112 ft | 355 kts | 346° |
| 2026-05-06 23:45 | 37.37770 | -115.92194 | 13756 ft | 354 kts | 340° |
| 2026-05-06 23:45 | 37.39909 | -115.93680 | 13368 ft | 355 kts | 325° |
| 2026-05-06 23:45 | 37.41732 | -115.95760 | 12995 ft | 355 kts | 316° |
| 2026-05-06 23:45 | 37.43427 | -115.98004 | 12597 ft | 349 kts | 316° |
| 2026-05-06 23:46 | 37.45033 | -116.00157 | 12214 ft | 332 kts | 316° |
| 2026-05-06 23:46 | 37.46574 | -116.02235 | 11835 ft | 316 kts | 315° |
| 2026-05-06 23:46 | 37.48037 | -116.04201 | 11452 ft | 302 kts | 317° |
| 2026-05-06 23:46 | 37.49456 | -116.06077 | 11113 ft | 291 kts | 317° |
| 2026-05-06 23:47 | 37.50832 | -116.07893 | 10718 ft | 282 kts | 317° |
| 2026-05-06 23:47 | 37.52172 | -116.09665 | 10385 ft | 275 kts | 316° |
| 2026-05-06 23:47 | 37.53480 | -116.11399 | 10064 ft | 267 kts | 316° |
| 2026-05-06 23:47 | 37.54698 | -116.13010 | 10024 ft | 250 kts | 316° |
| 2026-05-06 23:48 | 37.55877 | -116.14575 | 10001 ft | 234 kts | 317° |
| 2026-05-06 23:48 | 37.56964 | -116.16019 | 9997 ft | 227 kts | 316° |
| 2026-05-06 23:48 | 37.57888 | -116.17631 | 10006 ft | 229 kts | 297° |
| 2026-05-06 23:48 | 37.58239 | -116.19621 | 10002 ft | 238 kts | 272° |
| 2026-05-06 23:49 | 37.57800 | -116.21642 | 10014 ft | 243 kts | 241° |
| 2026-05-06 23:49 | 37.56643 | -116.23166 | 10018 ft | 247 kts | 213° |
| 2026-05-06 23:49 | 37.55114 | -116.24201 | 10019 ft | 253 kts | 207° |
| 2026-05-06 23:49 | 37.53526 | -116.25184 | 10020 ft | 254 kts | 206° |
| 2026-05-06 23:50 | 37.51979 | -116.26140 | 9989 ft | 245 kts | 206° |
| 2026-05-06 23:50 | 37.48956 | -116.25911 | 10009 ft | 223 kts | 140° |
| 2026-05-06 23:50 | 37.47923 | -116.24508 | 10019 ft | 218 kts | 116° |
| 2026-05-06 23:51 | 37.47459 | -116.22731 | 10018 ft | 212 kts | 88° |
| 2026-05-06 23:51 | 37.47658 | -116.20929 | 10022 ft | 207 kts | 63° |
| 2026-05-06 23:51 | 37.48442 | -116.19454 | 10008 ft | 202 kts | 38° |
| 2026-05-06 23:51 | 37.49637 | -116.18563 | 10006 ft | 199 kts | 15° |
| 2026-05-06 23:52 | 37.50991 | -116.18371 | 10011 ft | 197 kts | 357° |
| 2026-05-06 23:52 | 37.52340 | -116.18464 | 10006 ft | 196 kts | 5° |
| 2026-05-06 23:52 | 37.53683 | -116.18183 | 10017 ft | 195 kts | 17° |
| 2026-05-06 23:52 | 37.54768 | -116.17228 | 10011 ft | 194 kts | 55° |
| 2026-05-06 23:53 | 37.55204 | -116.15582 | 10033 ft | 205 kts | 82° |
| 2026-05-06 23:53 | 37.54947 | -116.13769 | 10020 ft | 216 kts | 107° |
| 2026-05-06 23:53 | 37.54359 | -116.12005 | 9882 ft | 224 kts | 109° |
| 2026-05-06 23:53 | 37.53733 | -116.10172 | 9631 ft | 225 kts | 109° |
| 2026-05-06 23:54 | 37.53125 | -116.08405 | 9597 ft | 216 kts | 110° |
| 2026-05-06 23:54 | 37.52534 | -116.06672 | 9599 ft | 214 kts | 110° |
| 2026-05-06 23:54 | 37.51948 | -116.04956 | 9628 ft | 211 kts | 109° |
| 2026-05-06 23:54 | 37.51372 | -116.03261 | 9617 ft | 212 kts | 109° |
| 2026-05-06 23:55 | 37.50796 | -116.01559 | 9597 ft | 210 kts | 109° |
| 2026-05-06 23:55 | 37.50233 | -115.99898 | 9615 ft | 211 kts | 108° |
| 2026-05-06 23:55 | 37.49645 | -115.98156 | 9618 ft | 215 kts | 110° |
| 2026-05-06 23:55 | 37.49018 | -115.96460 | 9579 ft | 218 kts | 120° |
| 2026-05-06 23:56 | 37.47875 | -115.95190 | 9497 ft | 226 kts | 142° |
| 2026-05-06 23:56 | 37.46545 | -115.94042 | 9198 ft | 232 kts | 143° |
| 2026-05-06 23:56 | 37.45214 | -115.92914 | 8872 ft | 227 kts | 144° |
| 2026-05-06 23:56 | 37.43919 | -115.91810 | 8571 ft | 222 kts | 143° |
| 2026-05-06 23:57 | 37.42669 | -115.90739 | 8299 ft | 219 kts | 141° |
| 2026-05-06 23:57 | 37.41419 | -115.89664 | 8006 ft | 216 kts | 143° |
| 2026-05-06 23:57 | 37.40171 | -115.88589 | 7724 ft | 218 kts | 141° |
| 2026-05-06 23:57 | 37.38910 | -115.87546 | 7437 ft | 220 kts | 148° |
| 2026-05-06 23:58 | 37.37519 | -115.86715 | 7168 ft | 220 kts | 155° |
| 2026-05-06 23:58 | 37.36108 | -115.85971 | 6863 ft | 219 kts | 154° |
| 2026-05-06 23:58 | 37.34710 | -115.85239 | 6587 ft | 217 kts | 155° |
| 2026-05-06 23:58 | 37.33316 | -115.84506 | 6289 ft | 218 kts | 155° |
| 2026-05-06 23:59 | 37.31931 | -115.83775 | 5987 ft | 216 kts | 156° |
| 2026-05-06 23:59 | 37.30560 | -115.83051 | 5602 ft | 208 kts | 156° |
| 2026-05-06 23:59 | 37.29294 | -115.82386 | 5449 ft | 186 kts | 156° |
| 2026-05-06 23:59 | 37.28162 | -115.81780 | 5235 ft | 164 kts | 154° |
| 2026-05-07 00:00 | 37.27170 | -115.81256 | 5063 ft | 148 kts | 158° |
| 2026-05-07 00:00 | 37.26231 | -115.80764 | 4817 ft | 145 kts | 156° |
| 2026-05-07 00:00 | 37.25290 | -115.80271 | 4585 ft | 143 kts | 155° |
| 2026-05-07 00:00 | 37.24397 | -115.79802 | 4443 ft | 133 kts | 155° |
| 2026-05-07 00:01 | 37.23663 | -115.79409 | 4442 ft | 93 kts | 156° |
| 2026-05-07 00:01 | 37.23139 | -115.79133 | 4442 ft | 76 kts | 160° |
| 2026-05-07 00:01 | 37.22683 | -115.78895 | 4442 ft | 65 kts | 156° |
| 2026-05-07 00:01 | 37.22301 | -115.78692 | 4442 ft | 59 kts | 157° |
| 2026-05-07 00:02 | 37.22088 | -115.78579 | 4441 ft | 39 kts | 157° |
| 2026-05-07 00:02 | 37.21967 | -115.78513 | 4441 ft | 17 kts | 156° |
| 2026-05-07 00:02 | 37.21856 | -115.78496 | 4441 ft | 17 kts | 207° |
| 2026-05-07 00:02 | 37.21808 | -115.78620 | 4441 ft | 16 kts | 277° |
| 2026-05-07 00:03 | 37.21832 | -115.78759 | 4441 ft | 17 kts | 285° |
| 2026-05-07 00:03 | 37.21866 | -115.78905 | 4441 ft | 18 kts | 287° |
| 2026-05-07 00:03 | 37.21897 | -115.79055 | 4441 ft | 18 kts | 284° |
| 2026-05-07 00:03 | 37.21913 | -115.79218 | 4441 ft | 20 kts | 259° |
| 2026-05-07 00:04 | 37.21901 | -115.79387 | 4441 ft | 21 kts | 301° |
| 2026-05-07 00:04 | 37.22010 | -115.79513 | 4441 ft | 22 kts | 320° |
| 2026-05-07 00:04 | 37.22124 | -115.79637 | 4441 ft | 21 kts | 317° |
| 2026-05-07 00:04 | 37.22226 | -115.79751 | 4441 ft | 21 kts | 318° |
| 2026-05-07 00:05 | 37.22342 | -115.79878 | 4442 ft | 24 kts | 318° |
| 2026-05-07 00:05 | 37.22468 | -115.80012 | 4442 ft | 23 kts | 319° |
| 2026-05-07 00:05 | 37.22586 | -115.80141 | 4442 ft | 22 kts | 320° |
| 2026-05-07 00:05 | 37.22702 | -115.80268 | 4442 ft | 22 kts | 318° |
| 2026-05-07 00:06 | 37.22816 | -115.80393 | 4441 ft | 21 kts | 319° |
| 2026-05-07 00:06 | 37.22924 | -115.80511 | 4441 ft | 20 kts | 319° |
| 2026-05-07 00:06 | 37.23034 | -115.80629 | 4441 ft | 21 kts | 320° |
| 2026-05-07 00:06 | 37.23144 | -115.80745 | 4441 ft | 21 kts | 318° |
| 2026-05-07 00:07 | 37.23251 | -115.80862 | 4441 ft | 20 kts | 320° |
| 2026-05-07 00:07 | 37.23355 | -115.80975 | 4441 ft | 19 kts | 317° |
| 2026-05-07 00:07 | 37.23455 | -115.81084 | 4441 ft | 19 kts | 321° |
| 2026-05-07 00:07 | 37.23578 | -115.81124 | 4441 ft | 18 kts | 357° |
| 2026-05-07 00:08 | 37.23677 | -115.81160 | 4442 ft | 12 kts | 298° |
| 2026-05-07 00:08 | 37.23709 | -115.81231 | 4441 ft | 9 kts | 340° |
| 2026-05-07 00:08 | 37.23771 | -115.81240 | 4441 ft | 9 kts | 357° |
| 2026-05-07 00:08 | 37.23833 | -115.81243 | 4441 ft | 9 kts | 358° |
| 2026-05-07 00:09 | 37.23889 | -115.81240 | 4440 ft | 8 kts | 22° |
| 2026-05-07 00:09 | 37.23905 | -115.81219 | 4441 ft | 0 kts | 76° |
| 2026-05-07 00:09 | 37.23906 | -115.81195 | 4441 ft | 2 kts | 85° |